CheckWX is a tool to help pilots better visualize weather data.  It is not intended as a substitute for an official pre-flight weather briefing.

13:47:26 UTC

KAHN TAF
Athens / Ben Epps Airport
Athens, Georgia, USA
KAHN 181139Z 1812/1912 00000KT 6SM BR FEW012 FEW250 FM181400 28003KT P6SM FEW035 FM181900 19003KT P6SM VCSH SCT050 FM190200 16004KT P6SM SCT200 FM190900 00000KT 5SM BR SCT035 SCT200 FM191100 00000KT 6SM BR SCT008 SCT200

Aug-18@
12:00 UTC

Aug-18 @ 12:00 UTC

Aug-18@
14:00 UTC

Aug-18 @ 14:00 UTC

KAHN 181139Z 1812/1912 00000KT 6SM BR FEW012 FEW250
Conditions
Mist
Cloud Levels
  • Few at 1,200' AGL
  • Few at 25,000' AGL

Aug-18@
14:00 UTC

Aug-18 @ 14:00 UTC

Aug-18@
19:00 UTC

Aug-18 @ 19:00 UTC

FM181400 28003KT P6SM FEW035

From

From Standard forecast or significant change

Wind
  • 280° at 3 KTS
Cloud Levels
  • Few at 3,500' AGL

Aug-18@
19:00 UTC

Aug-18 @ 19:00 UTC

Aug-19@
02:00 UTC

Aug-19 @ 02:00 UTC

FM181900 19003KT P6SM VCSH SCT050

From

From Standard forecast or significant change

Wind
  • 190° at 3 KTS
Cloud Levels
  • Scattered at 5,000' AGL

Aug-19@
02:00 UTC

Aug-19 @ 02:00 UTC

Aug-19@
09:00 UTC

Aug-19 @ 09:00 UTC

FM190200 16004KT P6SM SCT200

From

From Standard forecast or significant change

Wind
  • 160° at 4 KTS
Cloud Levels
  • Scattered at 20,000' AGL

Aug-19@
09:00 UTC

Aug-19 @ 09:00 UTC

Aug-19@
11:00 UTC

Aug-19 @ 11:00 UTC

FM190900 00000KT 5SM BR SCT035 SCT200

From

From Standard forecast or significant change

Conditions
Mist
Cloud Levels
  • Scattered at 3,500' AGL
  • Scattered at 20,000' AGL

Aug-19@
11:00 UTC

Aug-19 @ 11:00 UTC

Aug-19@
12:00 UTC

Aug-19 @ 12:00 UTC

FM191100 00000KT 6SM BR SCT008 SCT200

From

From Standard forecast or significant change

Conditions
Mist
Cloud Levels
  • Scattered at 800' AGL
  • Scattered at 20,000' AGL